sensor_id;sensor_type;location;lat;lon;timestamp;pressure;altitude;pressure_sealevel;temperature;humidity
9129;BME280;4599;50.906;6.786;2023-04-27T00:02:27;17179.72;;;-142.83;nan
9129;BME280;4599;50.906;6.786;2023-04-27T00:06:29;17149.03;;;-142.83;nan
9129;BME280;4599;50.906;6.786;2023-04-27T00:10:31;17177.66;;;-142.83;nan
9129;BME280;4599;50.906;6.786;2023-04-27T00:14:33;17171.53;;;-142.83;nan
9129;BME280;4599;50.906;6.786;2023-04-27T00:18:36;17140.84;;;-142.83;nan
9129;BME280;4599;50.906;6.786;2023-04-27T00:22:37;17140.84;;;-142.83;nan
9129;BME280;4599;50.906;6.786;2023-04-27T00:26:39;17165.38;;;-142.83;nan
9129;BME280;4599;50.906;6.786;2023-04-27T00:30:40;17136.75;;;-142.83;nan
9129;BME280;4599;50.906;6.786;2023-04-27T00:34:43;17167.44;;;-142.83;nan
9129;BME280;4599;50.906;6.786;2023-04-27T00:38:44;17132.66;;;-142.83;nan
9129;BME280;4599;50.906;6.786;2023-04-27T00:42:46;17175.63;;;-142.83;nan
9129;BME280;4599;50.906;6.786;2023-04-27T00:46:47;17142.91;;;-142.83;nan
9129;BME280;4599;50.906;6.786;2023-04-27T00:50:51;17104.03;;;-142.83;nan
9129;BME280;4599;50.906;6.786;2023-04-27T00:54:53;17167.44;;;-142.83;nan
9129;BME280;4599;50.906;6.786;2023-04-27T00:58:57;17142.91;;;-142.83;nan
9129;BME280;4599;50.906;6.786;2023-04-27T01:02:59;17136.75;;;-142.83;nan
9129;BME280;4599;50.906;6.786;2023-04-27T01:07:02;17142.91;;;-142.83;nan
9129;BME280;4599;50.906;6.786;2023-04-27T01:11:04;17112.22;;;-142.83;nan
9129;BME280;4599;50.906;6.786;2023-04-27T01:15:06;17118.34;;;-142.83;nan
9129;BME280;4599;50.906;6.786;2023-04-27T01:19:08;17118.34;;;-142.83;nan
9129;BME280;4599;50.906;6.786;2023-04-27T01:23:13;17108.13;;;-142.83;nan
9129;BME280;4599;50.906;6.786;2023-04-27T01:27:17;17126.53;;;-142.83;nan
9129;BME280;4599;50.906;6.786;2023-04-27T01:31:18;17102.00;;;-142.83;nan
9129;BME280;4599;50.906;6.786;2023-04-27T01:35:20;17050.84;;;-142.83;nan
9129;BME280;4599;50.906;6.786;2023-04-27T01:39:23;17106.06;;;-142.83;nan
9129;BME280;4599;50.906;6.786;2023-04-27T01:43:24;17106.06;;;-142.83;nan
9129;BME280;4599;50.906;6.786;2023-04-27T01:47:26;17089.72;;;-142.83;nan
9129;BME280;4599;50.906;6.786;2023-04-27T01:51:28;17077.44;;;-142.83;nan
9129;BME280;4599;50.906;6.786;2023-04-27T01:55:31;17085.63;;;-142.83;nan
9129;BME280;4599;50.906;6.786;2023-04-27T01:59:33;17089.72;;;-142.83;nan
9129;BME280;4599;50.906;6.786;2023-04-27T02:03:35;17085.63;;;-142.83;nan
9129;BME280;4599;50.906;6.786;2023-04-27T02:07:36;17091.75;;;-142.83;nan
9129;BME280;4599;50.906;6.786;2023-04-27T02:11:40;17067.22;;;-142.83;nan
9129;BME280;4599;50.906;6.786;2023-04-27T02:15:42;17093.81;;;-142.83;nan
9129;BME280;4599;50.906;6.786;2023-04-27T02:19:43;17067.22;;;-142.83;nan
9129;BME280;4599;50.906;6.786;2023-04-27T02:23:45;17069.25;;;-142.83;nan
9129;BME280;4599;50.906;6.786;2023-04-27T02:27:48;17069.25;;;-142.83;nan
9129;BME280;4599;50.906;6.786;2023-04-27T02:31:49;17065.16;;;-142.83;nan
9129;BME280;4599;50.906;6.786;2023-04-27T02:35:51;17020.19;;;-142.83;nan
9129;BME280;4599;50.906;6.786;2023-04-27T02:39:52;17028.34;;;-142.83;nan
9129;BME280;4599;50.906;6.786;2023-04-27T02:43:55;17071.31;;;-142.83;nan
9129;BME280;4599;50.906;6.786;2023-04-27T02:47:57;17042.69;;;-142.83;nan
9129;BME280;4599;50.906;6.786;2023-04-27T02:51:58;17063.13;;;-142.83;nan
9129;BME280;4599;50.906;6.786;2023-04-27T02:56:00;17020.19;;;-142.83;nan
9129;BME280;4599;50.906;6.786;2023-04-27T03:00:03;17034.50;;;-142.83;nan
9129;BME280;4599;50.906;6.786;2023-04-27T03:04:05;17036.53;;;-142.83;nan
9129;BME280;4599;50.906;6.786;2023-04-27T03:08:06;16993.59;;;-142.83;nan
9129;BME280;4599;50.906;6.786;2023-04-27T03:12:08;17018.13;;;-142.83;nan
9129;BME280;4599;50.906;6.786;2023-04-27T03:16:11;17022.22;;;-142.83;nan
9129;BME280;4599;50.906;6.786;2023-04-27T03:20:13;17003.81;;;-142.83;nan
9129;BME280;4599;50.906;6.786;2023-04-27T03:24:14;17024.25;;;-142.83;nan
9129;BME280;4599;50.906;6.786;2023-04-27T03:28:15;17005.84;;;-142.83;nan
9129;BME280;4599;50.906;6.786;2023-04-27T03:32:18;16979.28;;;-142.83;nan
9129;BME280;4599;50.906;6.786;2023-04-27T03:36:20;17009.94;;;-142.83;nan
9129;BME280;4599;50.906;6.786;2023-04-27T03:40:21;17007.91;;;-142.83;nan
9129;BME280;4599;50.906;6.786;2023-04-27T03:44:23;17009.94;;;-142.83;nan
9129;BME280;4599;50.906;6.786;2023-04-27T03:48:26;16973.13;;;-142.83;nan
9129;BME280;4599;50.906;6.786;2023-04-27T03:52:27;16993.59;;;-142.83;nan
9129;BME280;4599;50.906;6.786;2023-04-27T03:56:29;16975.19;;;-142.83;nan
9129;BME280;4599;50.906;6.786;2023-04-27T04:00:30;16987.44;;;-142.83;nan
9129;BME280;4599;50.906;6.786;2023-04-27T04:04:33;16964.97;;;-142.83;nan
9129;BME280;4599;50.906;6.786;2023-04-27T04:08:35;16975.19;;;-142.83;nan
9129;BME280;4599;50.906;6.786;2023-04-27T04:12:37;16946.53;;;-142.83;nan
9129;BME280;4599;50.906;6.786;2023-04-27T04:16:38;16973.13;;;-142.83;nan
9129;BME280;4599;50.906;6.786;2023-04-27T04:20:41;16969.03;;;-142.83;nan
9129;BME280;4599;50.906;6.786;2023-04-27T04:24:43;16997.69;;;-142.83;nan
9129;BME280;4599;50.906;6.786;2023-04-27T04:28:44;16964.97;;;-142.83;nan
9129;BME280;4599;50.906;6.786;2023-04-27T04:32:46;16967.00;;;-142.83;nan
9129;BME280;4599;50.906;6.786;2023-04-27T04:36:48;16969.03;;;-142.83;nan
9129;BME280;4599;50.906;6.786;2023-04-27T04:40:50;16962.91;;;-142.83;nan
9129;BME280;4599;50.906;6.786;2023-04-27T04:44:51;16960.88;;;-142.83;nan
9129;BME280;4599;50.906;6.786;2023-04-27T04:48:53;16967.00;;;-142.83;nan
9129;BME280;4599;50.906;6.786;2023-04-27T04:52:56;16948.59;;;-142.83;nan
9129;BME280;4599;50.906;6.786;2023-04-27T04:56:58;16981.31;;;-142.83;nan
9129;BME280;4599;50.906;6.786;2023-04-27T05:00:59;16950.63;;;-142.83;nan
9129;BME280;4599;50.906;6.786;2023-04-27T05:05:00;16958.81;;;-142.83;nan
9129;BME280;4599;50.906;6.786;2023-04-27T05:09:03;16967.00;;;-142.83;nan
9129;BME280;4599;50.906;6.786;2023-04-27T05:13:05;17020.19;;;-142.83;nan
9129;BME280;4599;50.906;6.786;2023-04-27T05:17:07;17014.03;;;-142.83;nan
9129;BME280;4599;50.906;6.786;2023-04-27T05:21:13;17040.63;;;-142.83;nan
9129;BME280;4599;50.906;6.786;2023-04-27T05:25:15;17028.34;;;-142.83;nan
9129;BME280;4599;50.906;6.786;2023-04-27T05:29:17;17048.81;;;-142.83;nan
9129;BME280;4599;50.906;6.786;2023-04-27T05:33:19;17130.63;;;-142.83;nan
9129;BME280;4599;50.906;6.786;2023-04-27T05:37:21;17232.88;;;-142.83;nan
9129;BME280;4599;50.906;6.786;2023-04-27T05:41:23;17261.53;;;-142.83;nan
9129;BME280;4599;50.906;6.786;2023-04-27T05:45:25;17343.34;;;-142.83;nan
9129;BME280;4599;50.906;6.786;2023-04-27T05:49:26;17521.28;;;-142.83;nan
9129;BME280;4599;50.906;6.786;2023-04-27T05:53:28;17652.22;;;-142.83;nan
9129;BME280;4599;50.906;6.786;2023-04-27T05:57:31;17736.06;;;-142.83;nan
9129;BME280;4599;50.906;6.786;2023-04-27T06:01:33;17791.31;;;-142.83;nan
9129;BME280;4599;50.906;6.786;2023-04-27T06:05:34;17832.22;;;-142.83;nan
9129;BME280;4599;50.906;6.786;2023-04-27T06:09:36;17858.81;;;-142.83;nan
9129;BME280;4599;50.906;6.786;2023-04-27T06:13:39;17887.47;;;-142.83;nan
9129;BME280;4599;50.906;6.786;2023-04-27T06:17:40;18014.28;;;-142.83;nan
9129;BME280;4599;50.906;6.786;2023-04-27T06:21:42;18089.97;;;-142.83;nan
9129;BME280;4599;50.906;6.786;2023-04-27T06:25:43;18206.59;;;-142.83;nan
9129;BME280;4599;50.906;6.786;2023-04-27T06:29:46;18296.63;;;-142.83;nan
9129;BME280;4599;50.906;6.786;2023-04-27T06:33:48;18351.84;;;-142.83;nan
9129;BME280;4599;50.906;6.786;2023-04-27T06:37:49;18358.00;;;-142.83;nan
9129;BME280;4599;50.906;6.786;2023-04-27T06:41:51;18466.44;;;-142.83;nan
9129;BME280;4599;50.906;6.786;2023-04-27T06:45:53;18578.97;;;-142.83;nan
9129;BME280;4599;50.906;6.786;2023-04-27T06:49:55;18480.75;;;-142.83;nan
9129;BME280;4599;50.906;6.786;2023-04-27T06:53:56;18480.75;;;-142.83;nan
9129;BME280;4599;50.906;6.786;2023-04-27T06:57:58;18470.53;;;-142.83;nan
9129;BME280;4599;50.906;6.786;2023-04-27T07:02:01;18376.41;;;-142.83;nan
9129;BME280;4599;50.906;6.786;2023-04-27T07:06:03;18517.59;;;-142.83;nan
9129;BME280;4599;50.906;6.786;2023-04-27T07:10:05;18652.63;;;-142.83;nan
9129;BME280;4599;50.906;6.786;2023-04-27T07:14:07;18486.88;;;-142.83;nan
9129;BME280;4599;50.906;6.786;2023-04-27T07:18:10;18411.19;;;-142.83;nan
9129;BME280;4599;50.906;6.786;2023-04-27T07:22:11;18564.63;;;-142.83;nan
9129;BME280;4599;50.906;6.786;2023-04-27T07:26:13;18607.59;;;-142.83;nan
9129;BME280;4599;50.906;6.786;2023-04-27T07:30:14;18362.09;;;-142.83;nan
9129;BME280;4599;50.906;6.786;2023-04-27T07:34:17;18323.22;;;-142.83;nan
9129;BME280;4599;50.906;6.786;2023-04-27T07:38:19;18237.28;;;-142.83;nan
9129;BME280;4599;50.906;6.786;2023-04-27T07:42:21;18339.59;;;-142.83;nan
9129;BME280;4599;50.906;6.786;2023-04-27T07:46:23;18398.91;;;-142.83;nan
9129;BME280;4599;50.906;6.786;2023-04-27T07:50:26;18509.41;;;-142.83;nan
9129;BME280;4599;50.906;6.786;2023-04-27T07:54:28;18574.88;;;-142.83;nan
9129;BME280;4599;50.906;6.786;2023-04-27T07:58:29;18599.41;;;-142.83;nan
9129;BME280;4599;50.906;6.786;2023-04-27T08:02:31;18748.78;;;-142.83;nan
9129;BME280;4599;50.906;6.786;2023-04-27T08:06:34;18869.50;;;-142.83;nan
9129;BME280;4599;50.906;6.786;2023-04-27T08:10:36;18519.63;;;-142.83;nan
9129;BME280;4599;50.906;6.786;2023-04-27T08:14:38;18574.88;;;-142.83;nan
9129;BME280;4599;50.906;6.786;2023-04-27T08:18:39;18417.31;;;-142.83;nan
9129;BME280;4599;50.906;6.786;2023-04-27T08:22:42;18638.28;;;-142.83;nan
9129;BME280;4599;50.906;6.786;2023-04-27T08:26:44;18560.53;;;-142.83;nan
9129;BME280;4599;50.906;6.786;2023-04-27T08:30:45;18615.78;;;-142.83;nan
9129;BME280;4599;50.906;6.786;2023-04-27T08:34:47;18812.22;;;-142.83;nan
9129;BME280;4599;50.906;6.786;2023-04-27T08:38:50;18578.97;;;-142.83;nan
9129;BME280;4599;50.906;6.786;2023-04-27T08:42:57;18525.75;;;-142.83;nan
9129;BME280;4599;50.906;6.786;2023-04-27T08:46:59;18484.84;;;-142.83;nan
9129;BME280;4599;50.906;6.786;2023-04-27T08:51:00;18857.25;;;-142.83;nan
9129;BME280;4599;50.906;6.786;2023-04-27T08:55:06;18644.44;;;-142.83;nan
9129;BME280;4599;50.906;6.786;2023-04-27T08:59:13;18730.38;;;-142.83;nan
9129;BME280;4599;50.906;6.786;2023-04-27T09:03:21;18783.56;;;-142.83;nan
9129;BME280;4599;50.906;6.786;2023-04-27T09:07:23;19065.97;;;-142.83;nan
9129;BME280;4599;50.906;6.786;2023-04-27T09:11:29;18889.97;;;-142.83;nan
9129;BME280;4599;50.906;6.786;2023-04-27T09:15:40;19080.28;;;-142.83;nan
9129;BME280;4599;50.906;6.786;2023-04-27T09:19:42;18896.13;;;-142.83;nan
9129;BME280;4599;50.906;6.786;2023-04-27T09:23:43;18701.72;;;-142.83;nan
9129;BME280;4599;50.906;6.786;2023-04-27T09:27:46;18894.06;;;-142.83;nan
9129;BME280;4599;50.906;6.786;2023-04-27T09:31:47;18832.69;;;-142.83;nan
9129;BME280;4599;50.906;6.786;2023-04-27T09:35:49;18808.13;;;-142.83;nan
9129;BME280;4599;50.906;6.786;2023-04-27T09:39:51;18914.53;;;-142.83;nan
9129;BME280;4599;50.906;6.786;2023-04-27T09:43:54;18865.41;;;-142.83;nan
9129;BME280;4599;50.906;6.786;2023-04-27T09:47:59;18781.53;;;-142.83;nan
9129;BME280;4599;50.906;6.786;2023-04-27T09:52:01;18736.50;;;-142.83;nan
9129;BME280;4599;50.906;6.786;2023-04-27T09:56:15;18531.91;;;-142.83;nan
9129;BME280;4599;50.906;6.786;2023-04-27T10:00:33;18644.44;;;-142.83;nan
9129;BME280;4599;50.906;6.786;2023-04-27T10:05:01;18615.78;;;-142.83;nan
9129;BME280;4599;50.906;6.786;2023-04-27T10:09:09;18564.63;;;-142.83;nan
9129;BME280;4599;50.906;6.786;2023-04-27T10:13:19;18450.06;;;-142.83;nan
9129;BME280;4599;50.906;6.786;2023-04-27T10:17:28;18546.22;;;-142.83;nan
9129;BME280;4599;50.906;6.786;2023-04-27T10:21:31;18718.09;;;-142.83;nan
9129;BME280;4599;50.906;6.786;2023-04-27T10:25:37;18687.41;;;-142.83;nan
9129;BME280;4599;50.906;6.786;2023-04-27T10:29:39;18531.91;;;-142.83;nan
9129;BME280;4599;50.906;6.786;2023-04-27T10:33:42;18564.63;;;-142.83;nan
9129;BME280;4599;50.906;6.786;2023-04-27T10:37:44;18623.97;;;-142.83;nan
9129;BME280;4599;50.906;6.786;2023-04-27T10:41:50;18705.81;;;-142.83;nan
9129;BME280;4599;50.906;6.786;2023-04-27T10:45:52;18730.38;;;-142.83;nan
9129;BME280;4599;50.906;6.786;2023-04-27T10:49:56;18875.66;;;-142.83;nan
9129;BME280;4599;50.906;6.786;2023-04-27T10:53:57;18957.50;;;-142.83;nan
9129;BME280;4599;50.906;6.786;2023-04-27T10:57:59;18873.59;;;-142.83;nan
9129;BME280;4599;50.906;6.786;2023-04-27T11:02:00;19031.16;;;-142.83;nan
9129;BME280;4599;50.906;6.786;2023-04-27T11:06:04;18902.25;;;-142.83;nan
9129;BME280;4599;50.906;6.786;2023-04-27T11:10:07;18775.38;;;-142.83;nan
9129;BME280;4599;50.906;6.786;2023-04-27T11:14:13;18607.59;;;-142.83;nan
9129;BME280;4599;50.906;6.786;2023-04-27T11:18:16;18834.72;;;-142.83;nan
9129;BME280;4599;50.906;6.786;2023-04-27T11:22:19;18802.00;;;-142.83;nan
9129;BME280;4599;50.906;6.786;2023-04-27T11:26:22;18814.25;;;-142.83;nan
9129;BME280;4599;50.906;6.786;2023-04-27T11:30:23;18773.34;;;-142.83;nan
9129;BME280;4599;50.906;6.786;2023-04-27T11:34:25;18441.88;;;-142.83;nan
9129;BME280;4599;50.906;6.786;2023-04-27T11:38:32;18503.25;;;-142.83;nan
9129;BME280;4599;50.906;6.786;2023-04-27T11:42:34;18685.34;;;-142.83;nan
9129;BME280;4599;50.906;6.786;2023-04-27T11:46:36;18791.75;;;-142.83;nan
9129;BME280;4599;50.906;6.786;2023-04-27T11:50:38;18589.19;;;-142.83;nan
9129;BME280;4599;50.906;6.786;2023-04-27T11:54:47;18437.78;;;-142.83;nan
9129;BME280;4599;50.906;6.786;2023-04-27T11:58:48;18595.34;;;-142.83;nan
9129;BME280;4599;50.906;6.786;2023-04-27T12:02:50;18591.25;;;-142.83;nan
9129;BME280;4599;50.906;6.786;2023-04-27T12:06:52;18548.28;;;-142.83;nan
9129;BME280;4599;50.906;6.786;2023-04-27T12:10:55;18654.66;;;-142.83;nan
9129;BME280;4599;50.906;6.786;2023-04-27T12:14:56;18433.69;;;-142.83;nan
9129;BME280;4599;50.906;6.786;2023-04-27T12:18:58;18572.81;;;-142.83;nan
9129;BME280;4599;50.906;6.786;2023-04-27T12:22:59;18587.16;;;-142.83;nan
9129;BME280;4599;50.906;6.786;2023-04-27T12:27:02;18718.09;;;-142.83;nan
9129;BME280;4599;50.906;6.786;2023-04-27T12:31:04;18889.97;;;-142.83;nan
9129;BME280;4599;50.906;6.786;2023-04-27T12:35:07;18431.66;;;-142.83;nan
9129;BME280;4599;50.906;6.786;2023-04-27T12:39:13;18460.28;;;-142.83;nan
9129;BME280;4599;50.906;6.786;2023-04-27T12:43:17;18550.31;;;-142.83;nan
9129;BME280;4599;50.906;6.786;2023-04-27T12:47:21;18435.75;;;-142.83;nan
9129;BME280;4599;50.906;6.786;2023-04-27T12:51:43;18509.41;;;-142.83;nan
9129;BME280;4599;50.906;6.786;2023-04-27T12:55:44;18380.50;;;-142.83;nan
9129;BME280;4599;50.906;6.786;2023-04-27T12:59:47;18423.47;;;-142.83;nan
9129;BME280;4599;50.906;6.786;2023-04-27T13:03:50;18454.16;;;-142.83;nan
9129;BME280;4599;50.906;6.786;2023-04-27T13:07:52;18488.94;;;-142.83;nan
9129;BME280;4599;50.906;6.786;2023-04-27T13:11:53;18358.00;;;-142.83;nan
9129;BME280;4599;50.906;6.786;2023-04-27T13:15:56;18468.47;;;-142.83;nan
9129;BME280;4599;50.906;6.786;2023-04-27T13:19:58;18550.31;;;-142.83;nan
9129;BME280;4599;50.906;6.786;2023-04-27T13:23:59;18505.31;;;-142.83;nan
9129;BME280;4599;50.906;6.786;2023-04-27T13:28:01;18716.06;;;-142.83;nan
9129;BME280;4599;50.906;6.786;2023-04-27T13:32:05;18597.38;;;-142.83;nan
9129;BME280;4599;50.906;6.786;2023-04-27T13:36:06;18718.09;;;-142.83;nan
9129;BME280;4599;50.906;6.786;2023-04-27T13:40:09;18701.72;;;-142.83;nan
9129;BME280;4599;50.906;6.786;2023-04-27T13:44:11;18675.13;;;-142.83;nan
9129;BME280;4599;50.906;6.786;2023-04-27T13:48:14;18593.28;;;-142.83;nan
9129;BME280;4599;50.906;6.786;2023-04-27T13:52:16;18603.50;;;-142.83;nan
9129;BME280;4599;50.906;6.786;2023-04-27T13:56:17;18513.50;;;-142.83;nan
9129;BME280;4599;50.906;6.786;2023-04-27T14:00:19;18493.03;;;-142.83;nan
9129;BME280;4599;50.906;6.786;2023-04-27T14:04:22;18499.16;;;-142.83;nan
9129;BME280;4599;50.906;6.786;2023-04-27T14:08:23;18558.50;;;-142.83;nan
9129;BME280;4599;50.906;6.786;2023-04-27T14:12:25;18623.97;;;-142.83;nan
9129;BME280;4599;50.906;6.786;2023-04-27T14:16:27;18511.44;;;-142.83;nan
9129;BME280;4599;50.906;6.786;2023-04-27T14:20:30;18339.59;;;-142.83;nan
9129;BME280;4599;50.906;6.786;2023-04-27T14:24:31;18384.59;;;-142.83;nan
9129;BME280;4599;50.906;6.786;2023-04-27T14:28:33;18225.00;;;-142.83;nan
9129;BME280;4599;50.906;6.786;2023-04-27T14:32:34;18364.13;;;-142.83;nan
9129;BME280;4599;50.906;6.786;2023-04-27T14:36:37;18429.59;;;-142.83;nan
9129;BME280;4599;50.906;6.786;2023-04-27T14:40:39;18435.75;;;-142.83;nan
9129;BME280;4599;50.906;6.786;2023-04-27T14:44:40;18443.94;;;-142.83;nan
9129;BME280;4599;50.906;6.786;2023-04-27T14:48:42;18403.00;;;-142.83;nan
9129;BME280;4599;50.906;6.786;2023-04-27T14:52:45;18216.81;;;-142.83;nan
9129;BME280;4599;50.906;6.786;2023-04-27T14:56:46;18317.06;;;-142.83;nan
9129;BME280;4599;50.906;6.786;2023-04-27T15:00:48;18345.72;;;-142.83;nan
9129;BME280;4599;50.906;6.786;2023-04-27T15:04:50;18331.41;;;-142.83;nan
9129;BME280;4599;50.906;6.786;2023-04-27T15:08:53;18358.00;;;-142.83;nan
9129;BME280;4599;50.906;6.786;2023-04-27T15:12:55;18245.47;;;-142.83;nan
9129;BME280;4599;50.906;6.786;2023-04-27T15:16:56;18190.22;;;-142.83;nan
9129;BME280;4599;50.906;6.786;2023-04-27T15:20:58;18184.09;;;-142.83;nan
9129;BME280;4599;50.906;6.786;2023-04-27T15:25:02;18112.50;;;-142.83;nan
9129;BME280;4599;50.906;6.786;2023-04-27T15:29:03;18173.88;;;-142.83;nan
9129;BME280;4599;50.906;6.786;2023-04-27T15:33:05;18218.88;;;-142.83;nan
9129;BME280;4599;50.906;6.786;2023-04-27T15:37:08;18141.13;;;-142.83;nan
9129;BME280;4599;50.906;6.786;2023-04-27T15:41:11;18231.16;;;-142.83;nan
9129;BME280;4599;50.906;6.786;2023-04-27T15:45:12;18194.31;;;-142.83;nan
9129;BME280;4599;50.906;6.786;2023-04-27T15:49:14;18155.44;;;-142.83;nan
9129;BME280;4599;50.906;6.786;2023-04-27T15:53:16;18130.91;;;-142.83;nan
9129;BME280;4599;50.906;6.786;2023-04-27T15:57:19;18218.88;;;-142.83;nan
9129;BME280;4599;50.906;6.786;2023-04-27T16:01:20;18145.22;;;-142.83;nan
9129;BME280;4599;50.906;6.786;2023-04-27T16:05:22;18175.91;;;-142.83;nan
9129;BME280;4599;50.906;6.786;2023-04-27T16:09:23;18196.38;;;-142.83;nan
9129;BME280;4599;50.906;6.786;2023-04-27T16:13:26;18186.13;;;-142.83;nan
9129;BME280;4599;50.906;6.786;2023-04-27T16:17:29;18126.81;;;-142.83;nan
9129;BME280;4599;50.906;6.786;2023-04-27T16:21:31;18112.50;;;-142.83;nan
9129;BME280;4599;50.906;6.786;2023-04-27T16:25:33;18167.72;;;-142.83;nan
9129;BME280;4599;50.906;6.786;2023-04-27T16:29:35;18132.94;;;-142.83;nan
9129;BME280;4599;50.906;6.786;2023-04-27T16:33:37;18145.22;;;-142.83;nan
9129;BME280;4599;50.906;6.786;2023-04-27T16:37:39;18108.41;;;-142.83;nan
9129;BME280;4599;50.906;6.786;2023-04-27T16:41:40;18126.81;;;-142.83;nan
9129;BME280;4599;50.906;6.786;2023-04-27T16:45:43;18132.94;;;-142.83;nan
9129;BME280;4599;50.906;6.786;2023-04-27T16:49:45;18071.56;;;-142.83;nan
9129;BME280;4599;50.906;6.786;2023-04-27T16:53:47;18069.53;;;-142.83;nan
9129;BME280;4599;50.906;6.786;2023-04-27T16:57:48;18059.28;;;-142.83;nan
9129;BME280;4599;50.906;6.786;2023-04-27T17:01:51;18073.63;;;-142.83;nan
9129;BME280;4599;50.906;6.786;2023-04-27T17:05:52;18083.84;;;-142.83;nan
9129;BME280;4599;50.906;6.786;2023-04-27T17:09:54;18036.78;;;-142.83;nan
9129;BME280;4599;50.906;6.786;2023-04-27T17:13:55;17997.94;;;-142.83;nan
9129;BME280;4599;50.906;6.786;2023-04-27T17:18:00;18059.28;;;-142.83;nan
9129;BME280;4599;50.906;6.786;2023-04-27T17:22:03;18075.66;;;-142.83;nan
9129;BME280;4599;50.906;6.786;2023-04-27T17:26:04;18059.28;;;-142.83;nan
9129;BME280;4599;50.906;6.786;2023-04-27T17:30:07;18018.38;;;-142.83;nan
9129;BME280;4599;50.906;6.786;2023-04-27T17:34:10;17963.16;;;-142.83;nan
9129;BME280;4599;50.906;6.786;2023-04-27T17:38:12;18034.75;;;-142.83;nan
9129;BME280;4599;50.906;6.786;2023-04-27T17:42:13;18010.19;;;-142.83;nan
9129;BME280;4599;50.906;6.786;2023-04-27T17:46:15;18004.06;;;-142.83;nan
9129;BME280;4599;50.906;6.786;2023-04-27T17:50:18;17891.53;;;-142.83;nan
9129;BME280;4599;50.906;6.786;2023-04-27T17:54:19;17924.28;;;-142.83;nan
9129;BME280;4599;50.906;6.786;2023-04-27T17:58:21;17928.38;;;-142.83;nan
9129;BME280;4599;50.906;6.786;2023-04-27T18:02:22;17887.47;;;-142.83;nan
9129;BME280;4599;50.906;6.786;2023-04-27T18:06:25;17871.09;;;-142.83;nan
9129;BME280;4599;50.906;6.786;2023-04-27T18:10:27;17924.28;;;-142.83;nan
9129;BME280;4599;50.906;6.786;2023-04-27T18:14:28;17885.41;;;-142.83;nan
9129;BME280;4599;50.906;6.786;2023-04-27T18:18:30;17854.72;;;-142.83;nan
9129;BME280;4599;50.906;6.786;2023-04-27T18:22:33;17875.19;;;-142.83;nan
9129;BME280;4599;50.906;6.786;2023-04-27T18:26:34;17844.50;;;-142.83;nan
9129;BME280;4599;50.906;6.786;2023-04-27T18:30:36;17805.63;;;-142.83;nan
9129;BME280;4599;50.906;6.786;2023-04-27T18:34:37;17817.91;;;-142.83;nan
9129;BME280;4599;50.906;6.786;2023-04-27T18:38:40;17793.34;;;-142.83;nan
9129;BME280;4599;50.906;6.786;2023-04-27T18:42:42;17797.44;;;-142.83;nan
9129;BME280;4599;50.906;6.786;2023-04-27T18:46:43;17772.91;;;-142.83;nan
9129;BME280;4599;50.906;6.786;2023-04-27T18:50:45;17760.63;;;-142.83;nan
9129;BME280;4599;50.906;6.786;2023-04-27T18:54:47;17752.44;;;-142.83;nan
9129;BME280;4599;50.906;6.786;2023-04-27T18:58:49;17744.25;;;-142.83;nan
9129;BME280;4599;50.906;6.786;2023-04-27T19:02:50;17740.16;;;-142.83;nan
9129;BME280;4599;50.906;6.786;2023-04-27T19:06:52;17744.25;;;-142.83;nan
9129;BME280;4599;50.906;6.786;2023-04-27T19:10:55;17746.31;;;-142.83;nan
9129;BME280;4599;50.906;6.786;2023-04-27T19:14:58;17750.41;;;-142.83;nan
9129;BME280;4599;50.906;6.786;2023-04-27T19:19:00;17738.13;;;-142.83;nan
9129;BME280;4599;50.906;6.786;2023-04-27T19:23:01;17713.56;;;-142.83;nan
9129;BME280;4599;50.906;6.786;2023-04-27T19:27:04;17680.84;;;-142.83;nan
9129;BME280;4599;50.906;6.786;2023-04-27T19:31:06;17703.34;;;-142.83;nan
9129;BME280;4599;50.906;6.786;2023-04-27T19:35:07;17674.72;;;-142.83;nan
9129;BME280;4599;50.906;6.786;2023-04-27T19:39:11;17703.34;;;-142.83;nan
9129;BME280;4599;50.906;6.786;2023-04-27T19:43:14;17662.44;;;-142.83;nan
9129;BME280;4599;50.906;6.786;2023-04-27T19:47:16;17672.66;;;-142.83;nan
9129;BME280;4599;50.906;6.786;2023-04-27T19:51:17;17672.66;;;-142.83;nan
9129;BME280;4599;50.906;6.786;2023-04-27T19:55:19;17686.97;;;-142.83;nan
9129;BME280;4599;50.906;6.786;2023-04-27T19:59:22;17678.81;;;-142.83;nan
9129;BME280;4599;50.906;6.786;2023-04-27T20:03:23;17707.44;;;-142.83;nan
9129;BME280;4599;50.906;6.786;2023-04-27T20:07:25;17674.72;;;-142.83;nan
9129;BME280;4599;50.906;6.786;2023-04-27T20:11:26;17686.97;;;-142.83;nan
9129;BME280;4599;50.906;6.786;2023-04-27T20:15:29;17664.47;;;-142.83;nan
9129;BME280;4599;50.906;6.786;2023-04-27T20:19:31;17699.25;;;-142.83;nan
9129;BME280;4599;50.906;6.786;2023-04-27T20:23:32;17619.47;;;-142.83;nan
9129;BME280;4599;50.906;6.786;2023-04-27T20:27:34;17666.53;;;-142.83;nan
9129;BME280;4599;50.906;6.786;2023-04-27T20:31:37;17633.78;;;-142.83;nan
9129;BME280;4599;50.906;6.786;2023-04-27T20:35:38;17631.75;;;-142.83;nan
9129;BME280;4599;50.906;6.786;2023-04-27T20:39:40;17635.84;;;-142.83;nan
9129;BME280;4599;50.906;6.786;2023-04-27T20:43:42;17625.63;;;-142.83;nan
9129;BME280;4599;50.906;6.786;2023-04-27T20:47:45;17650.16;;;-142.83;nan
9129;BME280;4599;50.906;6.786;2023-04-27T20:51:46;17644.03;;;-142.83;nan
9129;BME280;4599;50.906;6.786;2023-04-27T20:55:48;17609.25;;;-142.83;nan
9129;BME280;4599;50.906;6.786;2023-04-27T20:59:49;17654.25;;;-142.83;nan
9129;BME280;4599;50.906;6.786;2023-04-27T21:03:52;17656.28;;;-142.83;nan
9129;BME280;4599;50.906;6.786;2023-04-27T21:07:54;17625.63;;;-142.83;nan
9129;BME280;4599;50.906;6.786;2023-04-27T21:11:55;17648.13;;;-142.83;nan
9129;BME280;4599;50.906;6.786;2023-04-27T21:15:57;17625.63;;;-142.83;nan
9129;BME280;4599;50.906;6.786;2023-04-27T21:20:00;17641.97;;;-142.83;nan
9129;BME280;4599;50.906;6.786;2023-04-27T21:24:02;17662.44;;;-142.83;nan
9129;BME280;4599;50.906;6.786;2023-04-27T21:28:08;17621.53;;;-142.83;nan
9129;BME280;4599;50.906;6.786;2023-04-27T21:32:10;17625.63;;;-142.83;nan
9129;BME280;4599;50.906;6.786;2023-04-27T21:36:13;17635.84;;;-142.83;nan
9129;BME280;4599;50.906;6.786;2023-04-27T21:40:14;17644.03;;;-142.83;nan
9129;BME280;4599;50.906;6.786;2023-04-27T21:44:16;17623.56;;;-142.83;nan
9129;BME280;4599;50.906;6.786;2023-04-27T21:48:17;17609.25;;;-142.83;nan
9129;BME280;4599;50.906;6.786;2023-04-27T21:52:20;17619.47;;;-142.83;nan
9129;BME280;4599;50.906;6.786;2023-04-27T21:56:22;17695.16;;;-142.83;nan
9129;BME280;4599;50.906;6.786;2023-04-27T22:00:23;17684.94;;;-142.83;nan